sensor_id;sensor_type;location;lat;lon;timestamp;P1;durP1;ratioP1;P2;durP2;ratioP2
48853;SDS011;34673;52.808;17.856;2022-12-11T00:01:15;26.17;;;13.30;;
48853;SDS011;34673;52.808;17.856;2022-12-11T00:03:45;27.50;;;14.05;;
48853;SDS011;34673;52.808;17.856;2022-12-11T00:06:13;26.35;;;13.07;;
48853;SDS011;34673;52.808;17.856;2022-12-11T00:08:42;26.92;;;13.15;;
48853;SDS011;34673;52.808;17.856;2022-12-11T00:11:13;27.77;;;14.02;;
48853;SDS011;34673;52.808;17.856;2022-12-11T00:13:42;33.35;;;15.32;;
48853;SDS011;34673;52.808;17.856;2022-12-11T00:16:09;33.22;;;15.30;;
48853;SDS011;34673;52.808;17.856;2022-12-11T00:18:37;32.00;;;15.40;;
48853;SDS011;34673;52.808;17.856;2022-12-11T00:21:04;29.05;;;14.27;;
48853;SDS011;34673;52.808;17.856;2022-12-11T00:23:37;29.10;;;13.75;;
48853;SDS011;34673;52.808;17.856;2022-12-11T00:26:05;28.77;;;14.18;;
48853;SDS011;34673;52.808;17.856;2022-12-11T00:31:06;24.25;;;12.00;;
48853;SDS011;34673;52.808;17.856;2022-12-11T00:33:34;24.58;;;12.00;;
48853;SDS011;34673;52.808;17.856;2022-12-11T00:36:01;25.27;;;11.48;;
48853;SDS011;34673;52.808;17.856;2022-12-11T00:38:29;23.95;;;11.60;;
48853;SDS011;34673;52.808;17.856;2022-12-11T00:40:57;24.83;;;12.32;;
48853;SDS011;34673;52.808;17.856;2022-12-11T00:43:24;25.92;;;12.70;;
48853;SDS011;34673;52.808;17.856;2022-12-11T00:45:52;28.15;;;13.95;;
48853;SDS011;34673;52.808;17.856;2022-12-11T00:48:19;25.85;;;13.57;;
48853;SDS011;34673;52.808;17.856;2022-12-11T00:50:46;25.33;;;12.70;;
48853;SDS011;34673;52.808;17.856;2022-12-11T00:53:13;26.90;;;13.35;;
48853;SDS011;34673;52.808;17.856;2022-12-11T00:55:41;24.00;;;12.57;;
48853;SDS011;34673;52.808;17.856;2022-12-11T00:58:09;28.27;;;13.68;;
48853;SDS011;34673;52.808;17.856;2022-12-11T01:00:36;27.00;;;13.30;;
48853;SDS011;34673;52.808;17.856;2022-12-11T01:03:04;27.52;;;12.98;;
48853;SDS011;34673;52.808;17.856;2022-12-11T01:05:32;26.42;;;12.32;;
48853;SDS011;34673;52.808;17.856;2022-12-11T01:08:00;24.73;;;12.73;;
48853;SDS011;34673;52.808;17.856;2022-12-11T01:10:27;26.02;;;12.50;;
48853;SDS011;34673;52.808;17.856;2022-12-11T01:12:59;27.55;;;13.88;;
48853;SDS011;34673;52.808;17.856;2022-12-11T01:15:30;26.85;;;13.20;;
48853;SDS011;34673;52.808;17.856;2022-12-11T01:18:05;27.00;;;13.13;;
48853;SDS011;34673;52.808;17.856;2022-12-11T01:20:32;25.85;;;12.98;;
48853;SDS011;34673;52.808;17.856;2022-12-11T01:22:59;26.52;;;12.80;;
48853;SDS011;34673;52.808;17.856;2022-12-11T01:25:27;28.00;;;13.35;;
48853;SDS011;34673;52.808;17.856;2022-12-11T01:27:54;27.67;;;13.57;;
48853;SDS011;34673;52.808;17.856;2022-12-11T01:30:23;26.75;;;13.35;;
48853;SDS011;34673;52.808;17.856;2022-12-11T01:32:51;28.73;;;14.15;;
48853;SDS011;34673;52.808;17.856;2022-12-11T01:35:18;24.33;;;12.75;;
48853;SDS011;34673;52.808;17.856;2022-12-11T01:37:46;27.55;;;14.35;;
48853;SDS011;34673;52.808;17.856;2022-12-11T01:40:15;24.45;;;11.55;;
48853;SDS011;34673;52.808;17.856;2022-12-11T01:42:44;23.45;;;12.52;;
48853;SDS011;34673;52.808;17.856;2022-12-11T01:47:51;24.95;;;13.38;;
48853;SDS011;34673;52.808;17.856;2022-12-11T01:50:28;23.00;;;11.52;;
48853;SDS011;34673;52.808;17.856;2022-12-11T01:52:59;23.30;;;11.73;;
48853;SDS011;34673;52.808;17.856;2022-12-11T01:55:27;19.33;;;10.43;;
48853;SDS011;34673;52.808;17.856;2022-12-11T01:57:54;20.40;;;9.98;;
48853;SDS011;34673;52.808;17.856;2022-12-11T02:00:21;17.67;;;9.35;;
48853;SDS011;34673;52.808;17.856;2022-12-11T02:02:48;15.48;;;8.93;;
48853;SDS011;34673;52.808;17.856;2022-12-11T02:05:15;17.35;;;9.18;;
48853;SDS011;34673;52.808;17.856;2022-12-11T02:07:45;17.63;;;8.98;;
48853;SDS011;34673;52.808;17.856;2022-12-11T02:10:22;17.23;;;8.88;;
48853;SDS011;34673;52.808;17.856;2022-12-11T02:16:20;15.57;;;8.38;;
48853;SDS011;34673;52.808;17.856;2022-12-11T02:18:54;17.90;;;8.48;;
48853;SDS011;34673;52.808;17.856;2022-12-11T02:21:32;16.85;;;8.15;;
48853;SDS011;34673;52.808;17.856;2022-12-11T02:27:26;18.70;;;9.18;;
48853;SDS011;34673;52.808;17.856;2022-12-11T02:29:36;17.40;;;9.07;;
48853;SDS011;34673;52.808;17.856;2022-12-11T02:32:09;16.40;;;8.68;;
48853;SDS011;34673;52.808;17.856;2022-12-11T02:34:42;17.80;;;8.90;;
48853;SDS011;34673;52.808;17.856;2022-12-11T02:37:15;15.93;;;8.65;;
48853;SDS011;34673;52.808;17.856;2022-12-11T02:39:47;16.60;;;8.40;;
48853;SDS011;34673;52.808;17.856;2022-12-11T02:42:18;17.15;;;8.15;;
48853;SDS011;34673;52.808;17.856;2022-12-11T02:44:47;15.93;;;8.50;;
48853;SDS011;34673;52.808;17.856;2022-12-11T02:47:16;17.13;;;8.40;;
48853;SDS011;34673;52.808;17.856;2022-12-11T02:49:46;14.65;;;8.15;;
48853;SDS011;34673;52.808;17.856;2022-12-11T02:52:16;16.88;;;8.02;;
48853;SDS011;34673;52.808;17.856;2022-12-11T02:54:46;14.48;;;7.70;;
48853;SDS011;34673;52.808;17.856;2022-12-11T02:57:28;18.33;;;8.40;;
48853;SDS011;34673;52.808;17.856;2022-12-11T03:00:01;15.80;;;8.13;;
48853;SDS011;34673;52.808;17.856;2022-12-11T03:02:30;13.55;;;7.20;;
48853;SDS011;34673;52.808;17.856;2022-12-11T03:04:58;14.10;;;7.30;;
48853;SDS011;34673;52.808;17.856;2022-12-11T03:07:26;12.60;;;6.50;;
48853;SDS011;34673;52.808;17.856;2022-12-11T03:09:58;12.90;;;6.57;;
48853;SDS011;34673;52.808;17.856;2022-12-11T03:12:30;12.48;;;6.63;;
48853;SDS011;34673;52.808;17.856;2022-12-11T03:15:00;13.65;;;6.70;;
48853;SDS011;34673;52.808;17.856;2022-12-11T03:17:37;13.85;;;6.60;;
48853;SDS011;34673;52.808;17.856;2022-12-11T03:23:21;13.35;;;7.10;;
48853;SDS011;34673;52.808;17.856;2022-12-11T03:25:57;13.77;;;6.70;;
48853;SDS011;34673;52.808;17.856;2022-12-11T03:28:48;14.80;;;6.85;;
48853;SDS011;34673;52.808;17.856;2022-12-11T03:31:42;14.05;;;7.10;;
48853;SDS011;34673;52.808;17.856;2022-12-11T03:34:20;16.10;;;8.13;;
48853;SDS011;34673;52.808;17.856;2022-12-11T03:36:51;12.85;;;7.05;;
48853;SDS011;34673;52.808;17.856;2022-12-11T03:39:23;17.08;;;8.30;;
48853;SDS011;34673;52.808;17.856;2022-12-11T03:41:53;15.15;;;8.15;;
48853;SDS011;34673;52.808;17.856;2022-12-11T03:44:21;14.02;;;8.02;;
48853;SDS011;34673;52.808;17.856;2022-12-11T03:46:50;13.48;;;7.82;;
48853;SDS011;34673;52.808;17.856;2022-12-11T03:51:50;17.50;;;8.43;;
48853;SDS011;34673;52.808;17.856;2022-12-11T03:54:19;14.80;;;7.68;;
48853;SDS011;34673;52.808;17.856;2022-12-11T03:56:47;15.95;;;8.23;;
48853;SDS011;34673;52.808;17.856;2022-12-11T03:59:16;15.93;;;7.80;;
48853;SDS011;34673;52.808;17.856;2022-12-11T04:01:44;15.48;;;7.57;;
48853;SDS011;34673;52.808;17.856;2022-12-11T04:04:11;14.15;;;7.53;;
48853;SDS011;34673;52.808;17.856;2022-12-11T04:06:38;13.52;;;6.80;;
48853;SDS011;34673;52.808;17.856;2022-12-11T04:09:05;15.48;;;8.15;;
48853;SDS011;34673;52.808;17.856;2022-12-11T04:11:33;20.95;;;10.65;;
48853;SDS011;34673;52.808;17.856;2022-12-11T04:14:07;15.45;;;7.75;;
48853;SDS011;34673;52.808;17.856;2022-12-11T04:16:54;16.77;;;7.55;;
48853;SDS011;34673;52.808;17.856;2022-12-11T04:19:22;15.38;;;8.10;;
48853;SDS011;34673;52.808;17.856;2022-12-11T04:22:10;15.98;;;8.15;;
48853;SDS011;34673;52.808;17.856;2022-12-11T04:24:59;18.48;;;8.18;;
48853;SDS011;34673;52.808;17.856;2022-12-11T04:27:27;17.02;;;8.45;;
48853;SDS011;34673;52.808;17.856;2022-12-11T04:30:17;16.40;;;7.80;;
48853;SDS011;34673;52.808;17.856;2022-12-11T04:32:47;16.33;;;8.75;;
48853;SDS011;34673;52.808;17.856;2022-12-11T04:35:14;17.08;;;9.23;;
48853;SDS011;34673;52.808;17.856;2022-12-11T04:37:42;15.40;;;8.32;;
48853;SDS011;34673;52.808;17.856;2022-12-11T04:40:10;16.92;;;8.55;;
48853;SDS011;34673;52.808;17.856;2022-12-11T04:42:39;17.00;;;8.40;;
48853;SDS011;34673;52.808;17.856;2022-12-11T04:45:06;17.33;;;9.07;;
48853;SDS011;34673;52.808;17.856;2022-12-11T04:47:35;18.40;;;9.32;;
48853;SDS011;34673;52.808;17.856;2022-12-11T04:50:04;19.25;;;8.90;;
48853;SDS011;34673;52.808;17.856;2022-12-11T04:52:33;19.08;;;9.50;;
48853;SDS011;34673;52.808;17.856;2022-12-11T04:55:00;19.20;;;9.80;;
48853;SDS011;34673;52.808;17.856;2022-12-11T04:57:28;20.67;;;10.20;;
48853;SDS011;34673;52.808;17.856;2022-12-11T04:59:55;19.77;;;10.13;;
48853;SDS011;34673;52.808;17.856;2022-12-11T05:02:22;22.33;;;11.35;;
48853;SDS011;34673;52.808;17.856;2022-12-11T05:04:49;24.25;;;11.57;;
48853;SDS011;34673;52.808;17.856;2022-12-11T05:07:16;22.45;;;11.65;;
48853;SDS011;34673;52.808;17.856;2022-12-11T05:09:44;22.02;;;11.05;;
48853;SDS011;34673;52.808;17.856;2022-12-11T05:12:11;22.77;;;11.63;;
48853;SDS011;34673;52.808;17.856;2022-12-11T05:14:38;23.48;;;11.32;;
48853;SDS011;34673;52.808;17.856;2022-12-11T05:17:05;22.05;;;11.80;;
48853;SDS011;34673;52.808;17.856;2022-12-11T05:19:32;22.65;;;12.05;;
48853;SDS011;34673;52.808;17.856;2022-12-11T05:21:59;24.98;;;11.73;;
48853;SDS011;34673;52.808;17.856;2022-12-11T05:24:26;23.88;;;11.73;;
48853;SDS011;34673;52.808;17.856;2022-12-11T05:26:53;23.00;;;11.32;;
48853;SDS011;34673;52.808;17.856;2022-12-11T05:29:20;28.20;;;12.23;;
48853;SDS011;34673;52.808;17.856;2022-12-11T05:31:47;28.00;;;13.55;;
48853;SDS011;34673;52.808;17.856;2022-12-11T05:34:15;29.85;;;14.00;;
48853;SDS011;34673;52.808;17.856;2022-12-11T05:36:42;29.98;;;14.32;;
48853;SDS011;34673;52.808;17.856;2022-12-11T05:39:09;29.48;;;13.70;;
48853;SDS011;34673;52.808;17.856;2022-12-11T05:41:37;30.02;;;13.45;;
48853;SDS011;34673;52.808;17.856;2022-12-11T05:44:04;28.50;;;13.90;;
48853;SDS011;34673;52.808;17.856;2022-12-11T05:46:31;26.77;;;13.45;;
48853;SDS011;34673;52.808;17.856;2022-12-11T05:49:00;28.02;;;13.32;;
48853;SDS011;34673;52.808;17.856;2022-12-11T05:51:28;27.00;;;13.05;;
48853;SDS011;34673;52.808;17.856;2022-12-11T05:53:56;26.17;;;13.30;;
48853;SDS011;34673;52.808;17.856;2022-12-11T05:56:27;24.33;;;12.13;;
48853;SDS011;34673;52.808;17.856;2022-12-11T05:58:57;23.70;;;11.43;;
48853;SDS011;34673;52.808;17.856;2022-12-11T06:01:39;24.17;;;12.20;;
48853;SDS011;34673;52.808;17.856;2022-12-11T06:04:08;24.20;;;12.77;;
48853;SDS011;34673;52.808;17.856;2022-12-11T06:06:36;24.98;;;12.60;;
48853;SDS011;34673;52.808;17.856;2022-12-11T06:09:04;24.27;;;12.27;;
48853;SDS011;34673;52.808;17.856;2022-12-11T06:11:31;23.50;;;12.57;;
48853;SDS011;34673;52.808;17.856;2022-12-11T06:14:00;27.02;;;13.60;;
48853;SDS011;34673;52.808;17.856;2022-12-11T06:16:28;32.50;;;14.35;;
48853;SDS011;34673;52.808;17.856;2022-12-11T06:18:55;29.88;;;14.27;;
48853;SDS011;34673;52.808;17.856;2022-12-11T06:21:25;27.95;;;13.73;;
48853;SDS011;34673;52.808;17.856;2022-12-11T06:23:58;29.25;;;14.13;;
48853;SDS011;34673;52.808;17.856;2022-12-11T06:26:26;29.30;;;14.63;;
48853;SDS011;34673;52.808;17.856;2022-12-11T06:28:54;27.90;;;13.40;;
48853;SDS011;34673;52.808;17.856;2022-12-11T06:31:21;25.15;;;12.88;;
48853;SDS011;34673;52.808;17.856;2022-12-11T06:33:48;30.30;;;13.20;;
48853;SDS011;34673;52.808;17.856;2022-12-11T06:36:16;28.83;;;13.02;;
48853;SDS011;34673;52.808;17.856;2022-12-11T06:38:45;25.02;;;12.38;;
48853;SDS011;34673;52.808;17.856;2022-12-11T06:41:13;23.70;;;11.90;;
48853;SDS011;34673;52.808;17.856;2022-12-11T06:43:41;22.30;;;11.45;;
48853;SDS011;34673;52.808;17.856;2022-12-11T06:46:15;21.55;;;10.90;;
48853;SDS011;34673;52.808;17.856;2022-12-11T06:48:44;22.85;;;11.88;;
48853;SDS011;34673;52.808;17.856;2022-12-11T06:51:12;19.30;;;8.70;;
48853;SDS011;34673;52.808;17.856;2022-12-11T06:56:13;19.15;;;8.55;;
48853;SDS011;34673;52.808;17.856;2022-12-11T06:58:41;18.35;;;8.88;;
48853;SDS011;34673;52.808;17.856;2022-12-11T07:01:16;16.52;;;8.27;;
48853;SDS011;34673;52.808;17.856;2022-12-11T07:03:52;14.60;;;7.63;;
48853;SDS011;34673;52.808;17.856;2022-12-11T07:06:20;20.08;;;9.02;;
48853;SDS011;34673;52.808;17.856;2022-12-11T07:08:47;17.02;;;7.97;;
48853;SDS011;34673;52.808;17.856;2022-12-11T07:11:15;15.48;;;8.20;;
48853;SDS011;34673;52.808;17.856;2022-12-11T07:13:44;17.80;;;8.93;;
48853;SDS011;34673;52.808;17.856;2022-12-11T07:16:13;18.23;;;9.10;;
48853;SDS011;34673;52.808;17.856;2022-12-11T07:18:42;19.70;;;9.05;;
48853;SDS011;34673;52.808;17.856;2022-12-11T07:21:13;20.27;;;8.88;;
48853;SDS011;34673;52.808;17.856;2022-12-11T07:23:40;17.08;;;8.63;;
48853;SDS011;34673;52.808;17.856;2022-12-11T07:26:09;20.15;;;10.23;;
48853;SDS011;34673;52.808;17.856;2022-12-11T07:28:38;18.17;;;8.70;;
48853;SDS011;34673;52.808;17.856;2022-12-11T07:31:10;16.52;;;8.50;;
48853;SDS011;34673;52.808;17.856;2022-12-11T07:33:40;17.48;;;8.80;;
48853;SDS011;34673;52.808;17.856;2022-12-11T07:36:08;19.13;;;9.20;;
48853;SDS011;34673;52.808;17.856;2022-12-11T07:38:37;19.92;;;9.98;;
48853;SDS011;34673;52.808;17.856;2022-12-11T07:41:05;19.63;;;9.77;;
48853;SDS011;34673;52.808;17.856;2022-12-11T07:43:34;18.27;;;9.40;;
48853;SDS011;34673;52.808;17.856;2022-12-11T07:46:06;18.75;;;9.60;;
48853;SDS011;34673;52.808;17.856;2022-12-11T07:48:35;20.65;;;10.13;;
48853;SDS011;34673;52.808;17.856;2022-12-11T07:51:10;19.63;;;10.23;;
48853;SDS011;34673;52.808;17.856;2022-12-11T07:53:42;18.58;;;9.80;;
48853;SDS011;34673;52.808;17.856;2022-12-11T07:56:11;23.00;;;9.70;;
48853;SDS011;34673;52.808;17.856;2022-12-11T07:58:38;20.20;;;10.50;;
48853;SDS011;34673;52.808;17.856;2022-12-11T08:01:09;18.40;;;9.88;;
48853;SDS011;34673;52.808;17.856;2022-12-11T08:03:47;19.98;;;10.70;;
48853;SDS011;34673;52.808;17.856;2022-12-11T08:06:16;19.30;;;9.93;;
48853;SDS011;34673;52.808;17.856;2022-12-11T08:08:43;20.00;;;9.65;;
48853;SDS011;34673;52.808;17.856;2022-12-11T08:11:11;21.60;;;9.98;;
48853;SDS011;34673;52.808;17.856;2022-12-11T08:13:40;18.65;;;10.05;;
48853;SDS011;34673;52.808;17.856;2022-12-11T08:16:09;22.05;;;10.70;;
48853;SDS011;34673;52.808;17.856;2022-12-11T08:18:39;21.25;;;10.63;;
48853;SDS011;34673;52.808;17.856;2022-12-11T08:21:27;20.88;;;10.85;;
48853;SDS011;34673;52.808;17.856;2022-12-11T08:23:54;20.70;;;10.90;;
48853;SDS011;34673;52.808;17.856;2022-12-11T08:26:23;20.33;;;10.07;;
48853;SDS011;34673;52.808;17.856;2022-12-11T08:28:55;19.65;;;10.73;;
48853;SDS011;34673;52.808;17.856;2022-12-11T08:31:23;19.33;;;9.98;;
48853;SDS011;34673;52.808;17.856;2022-12-11T08:33:51;22.25;;;11.25;;
48853;SDS011;34673;52.808;17.856;2022-12-11T08:36:19;20.60;;;10.57;;
48853;SDS011;34673;52.808;17.856;2022-12-11T08:38:48;21.13;;;11.15;;
48853;SDS011;34673;52.808;17.856;2022-12-11T08:41:16;19.67;;;10.70;;
48853;SDS011;34673;52.808;17.856;2022-12-11T08:46:12;17.88;;;8.98;;
48853;SDS011;34673;52.808;17.856;2022-12-11T08:48:40;19.73;;;9.77;;
48853;SDS011;34673;52.808;17.856;2022-12-11T08:51:12;18.33;;;10.48;;
48853;SDS011;34673;52.808;17.856;2022-12-11T08:53:42;18.40;;;9.43;;
48853;SDS011;34673;52.808;17.856;2022-12-11T08:56:11;17.67;;;9.60;;
48853;SDS011;34673;52.808;17.856;2022-12-11T08:58:40;18.95;;;9.65;;
48853;SDS011;34673;52.808;17.856;2022-12-11T09:01:08;21.48;;;9.98;;
48853;SDS011;34673;52.808;17.856;2022-12-11T09:06:06;20.08;;;10.20;;
48853;SDS011;34673;52.808;17.856;2022-12-11T09:08:34;16.77;;;9.45;;
48853;SDS011;34673;52.808;17.856;2022-12-11T09:11:03;21.05;;;10.50;;
48853;SDS011;34673;52.808;17.856;2022-12-11T09:13:31;21.10;;;10.32;;
48853;SDS011;34673;52.808;17.856;2022-12-11T09:15:59;21.35;;;10.90;;
48853;SDS011;34673;52.808;17.856;2022-12-11T09:18:26;19.70;;;9.82;;
48853;SDS011;34673;52.808;17.856;2022-12-11T09:20:57;25.23;;;11.15;;
48853;SDS011;34673;52.808;17.856;2022-12-11T09:23:26;19.50;;;10.18;;
48853;SDS011;34673;52.808;17.856;2022-12-11T09:25:53;18.25;;;9.93;;
48853;SDS011;34673;52.808;17.856;2022-12-11T09:28:21;20.00;;;10.82;;
48853;SDS011;34673;52.808;17.856;2022-12-11T09:30:48;20.55;;;10.52;;
48853;SDS011;34673;52.808;17.856;2022-12-11T09:33:16;21.33;;;11.10;;
48853;SDS011;34673;52.808;17.856;2022-12-11T09:35:43;19.58;;;11.27;;
48853;SDS011;34673;52.808;17.856;2022-12-11T09:38:10;21.30;;;12.10;;
48853;SDS011;34673;52.808;17.856;2022-12-11T09:40:41;21.08;;;10.93;;
48853;SDS011;34673;52.808;17.856;2022-12-11T09:43:13;21.95;;;12.48;;
48853;SDS011;34673;52.808;17.856;2022-12-11T09:45:57;19.95;;;11.23;;
48853;SDS011;34673;52.808;17.856;2022-12-11T09:48:28;24.83;;;12.48;;
48853;SDS011;34673;52.808;17.856;2022-12-11T09:51:01;21.80;;;11.77;;
48853;SDS011;34673;52.808;17.856;2022-12-11T09:53:36;24.35;;;12.68;;
48853;SDS011;34673;52.808;17.856;2022-12-11T10:04:36;23.10;;;12.23;;
48853;SDS011;34673;52.808;17.856;2022-12-11T10:07:20;21.20;;;11.25;;
48853;SDS011;34673;52.808;17.856;2022-12-11T10:10:06;23.23;;;10.68;;
48853;SDS011;34673;52.808;17.856;2022-12-11T10:15:15;22.35;;;10.65;;
48853;SDS011;34673;52.808;17.856;2022-12-11T10:18:14;22.83;;;11.65;;
48853;SDS011;34673;52.808;17.856;2022-12-11T10:23:16;25.70;;;12.50;;
48853;SDS011;34673;52.808;17.856;2022-12-11T10:25:50;25.00;;;12.75;;
48853;SDS011;34673;52.808;17.856;2022-12-11T10:28:25;22.75;;;12.52;;
48853;SDS011;34673;52.808;17.856;2022-12-11T10:31:09;22.35;;;11.02;;
48853;SDS011;34673;52.808;17.856;2022-12-11T10:36:10;21.92;;;12.05;;
48853;SDS011;34673;52.808;17.856;2022-12-11T10:38:46;20.48;;;10.52;;
48853;SDS011;34673;52.808;17.856;2022-12-11T10:41:15;19.80;;;11.20;;
48853;SDS011;34673;52.808;17.856;2022-12-11T10:43:45;20.58;;;10.50;;
48853;SDS011;34673;52.808;17.856;2022-12-11T10:46:18;18.55;;;10.20;;
48853;SDS011;34673;52.808;17.856;2022-12-11T10:48:51;21.45;;;11.23;;
48853;SDS011;34673;52.808;17.856;2022-12-11T10:51:28;20.35;;;10.98;;
48853;SDS011;34673;52.808;17.856;2022-12-11T10:57:01;22.00;;;10.38;;
48853;SDS011;34673;52.808;17.856;2022-12-11T11:04:31;23.85;;;11.02;;
48853;SDS011;34673;52.808;17.856;2022-12-11T11:07:12;36.67;;;16.67;;
48853;SDS011;34673;52.808;17.856;2022-12-11T11:09:50;70.30;;;23.98;;
48853;SDS011;34673;52.808;17.856;2022-12-11T11:12:28;23.05;;;11.38;;
48853;SDS011;34673;52.808;17.856;2022-12-11T11:14:59;21.05;;;10.90;;
48853;SDS011;34673;52.808;17.856;2022-12-11T11:17:29;19.88;;;10.70;;
48853;SDS011;34673;52.808;17.856;2022-12-11T11:20:03;16.88;;;9.48;;
48853;SDS011;34673;52.808;17.856;2022-12-11T11:22:40;17.60;;;8.95;;
48853;SDS011;34673;52.808;17.856;2022-12-11T11:25:26;17.27;;;9.00;;
48853;SDS011;34673;52.808;17.856;2022-12-11T11:27:56;16.98;;;9.00;;
48853;SDS011;34673;52.808;17.856;2022-12-11T11:30:30;17.08;;;8.55;;
48853;SDS011;34673;52.808;17.856;2022-12-11T11:33:12;17.35;;;9.07;;
48853;SDS011;34673;52.808;17.856;2022-12-11T11:36:03;18.73;;;8.70;;
48853;SDS011;34673;52.808;17.856;2022-12-11T11:38:38;16.27;;;8.45;;
48853;SDS011;34673;52.808;17.856;2022-12-11T11:44:17;15.07;;;7.90;;
48853;SDS011;34673;52.808;17.856;2022-12-11T11:47:14;14.63;;;7.28;;
48853;SDS011;34673;52.808;17.856;2022-12-11T11:49:51;13.30;;;6.43;;
48853;SDS011;34673;52.808;17.856;2022-12-11T11:52:26;14.23;;;7.07;;
48853;SDS011;34673;52.808;17.856;2022-12-11T11:58:07;13.18;;;6.68;;
48853;SDS011;34673;52.808;17.856;2022-12-11T12:00:40;16.15;;;7.50;;
48853;SDS011;34673;52.808;17.856;2022-12-11T12:03:17;16.38;;;8.00;;
48853;SDS011;34673;52.808;17.856;2022-12-11T12:05:53;14.32;;;7.25;;
48853;SDS011;34673;52.808;17.856;2022-12-11T12:11:08;12.90;;;6.55;;
48853;SDS011;34673;52.808;17.856;2022-12-11T12:20:01;19.20;;;9.55;;
48853;SDS011;34673;52.808;17.856;2022-12-11T12:30:47;13.95;;;7.07;;
48853;SDS011;34673;52.808;17.856;2022-12-11T12:33:43;14.57;;;7.32;;
48853;SDS011;34673;52.808;17.856;2022-12-11T12:36:30;18.90;;;8.27;;
48853;SDS011;34673;52.808;17.856;2022-12-11T12:39:04;13.98;;;6.60;;
48853;SDS011;34673;52.808;17.856;2022-12-11T12:41:53;16.05;;;7.68;;
48853;SDS011;34673;52.808;17.856;2022-12-11T12:44:36;19.75;;;9.43;;
48853;SDS011;34673;52.808;17.856;2022-12-11T12:47:12;17.88;;;7.65;;
48853;SDS011;34673;52.808;17.856;2022-12-11T12:49:44;17.88;;;8.18;;
48853;SDS011;34673;52.808;17.856;2022-12-11T12:52:17;17.75;;;8.35;;
48853;SDS011;34673;52.808;17.856;2022-12-11T12:54:50;16.20;;;8.07;;
48853;SDS011;34673;52.808;17.856;2022-12-11T12:57:43;16.42;;;8.15;;
48853;SDS011;34673;52.808;17.856;2022-12-11T13:00:12;18.10;;;8.27;;
48853;SDS011;34673;52.808;17.856;2022-12-11T13:02:50;14.80;;;7.80;;
48853;SDS011;34673;52.808;17.856;2022-12-11T13:05:20;21.27;;;9.00;;
48853;SDS011;34673;52.808;17.856;2022-12-11T13:07:54;22.30;;;9.40;;
48853;SDS011;34673;52.808;17.856;2022-12-11T13:10:33;18.95;;;9.45;;
48853;SDS011;34673;52.808;17.856;2022-12-11T13:13:04;21.50;;;9.25;;
48853;SDS011;34673;52.808;17.856;2022-12-11T13:15:51;38.53;;;14.05;;
48853;SDS011;34673;52.808;17.856;2022-12-11T13:26:40;32.65;;;12.63;;
48853;SDS011;34673;52.808;17.856;2022-12-11T13:29:28;25.15;;;11.70;;
48853;SDS011;34673;52.808;17.856;2022-12-11T13:34:35;26.63;;;11.80;;
48853;SDS011;34673;52.808;17.856;2022-12-11T13:37:04;22.85;;;10.75;;
48853;SDS011;34673;52.808;17.856;2022-12-11T13:39:33;22.92;;;10.60;;
48853;SDS011;34673;52.808;17.856;2022-12-11T13:42:03;21.13;;;11.07;;
48853;SDS011;34673;52.808;17.856;2022-12-11T13:44:46;23.73;;;11.00;;
48853;SDS011;34673;52.808;17.856;2022-12-11T13:47:15;26.17;;;12.20;;
48853;SDS011;34673;52.808;17.856;2022-12-11T13:49:45;24.23;;;11.93;;
48853;SDS011;34673;52.808;17.856;2022-12-11T13:52:16;24.75;;;11.27;;
48853;SDS011;34673;52.808;17.856;2022-12-11T13:54:48;27.43;;;11.87;;
48853;SDS011;34673;52.808;17.856;2022-12-11T13:57:18;27.38;;;12.90;;
48853;SDS011;34673;52.808;17.856;2022-12-11T13:59:52;25.67;;;12.82;;
48853;SDS011;34673;52.808;17.856;2022-12-11T14:02:30;26.10;;;11.05;;
48853;SDS011;34673;52.808;17.856;2022-12-11T14:05:02;23.90;;;10.90;;
48853;SDS011;34673;52.808;17.856;2022-12-11T14:07:33;23.85;;;11.43;;
48853;SDS011;34673;52.808;17.856;2022-12-11T14:10:05;24.35;;;11.38;;
48853;SDS011;34673;52.808;17.856;2022-12-11T14:12:45;28.10;;;12.63;;
48853;SDS011;34673;52.808;17.856;2022-12-11T14:15:43;23.10;;;11.02;;
48853;SDS011;34673;52.808;17.856;2022-12-11T14:18:13;29.20;;;12.05;;
48853;SDS011;34673;52.808;17.856;2022-12-11T14:20:43;24.90;;;12.45;;
48853;SDS011;34673;52.808;17.856;2022-12-11T14:23:17;31.80;;;15.35;;
48853;SDS011;34673;52.808;17.856;2022-12-11T14:25:56;26.65;;;12.55;;
48853;SDS011;34673;52.808;17.856;2022-12-11T14:28:25;34.40;;;15.43;;
48853;SDS011;34673;52.808;17.856;2022-12-11T14:30:54;32.58;;;14.68;;
48853;SDS011;34673;52.808;17.856;2022-12-11T14:33:26;30.35;;;14.00;;
48853;SDS011;34673;52.808;17.856;2022-12-11T14:35:58;22.45;;;10.57;;
48853;SDS011;34673;52.808;17.856;2022-12-11T14:38:33;19.30;;;8.35;;
48853;SDS011;34673;52.808;17.856;2022-12-11T14:44:07;18.35;;;8.27;;
48853;SDS011;34673;52.808;17.856;2022-12-11T14:46:51;18.13;;;8.82;;
48853;SDS011;34673;52.808;17.856;2022-12-11T14:52:22;17.73;;;7.93;;
48853;SDS011;34673;52.808;17.856;2022-12-11T14:54:56;20.95;;;9.25;;
48853;SDS011;34673;52.808;17.856;2022-12-11T14:57:30;20.20;;;9.07;;
48853;SDS011;34673;52.808;17.856;2022-12-11T14:59:59;18.42;;;9.13;;
48853;SDS011;34673;52.808;17.856;2022-12-11T15:02:29;18.08;;;8.60;;
48853;SDS011;34673;52.808;17.856;2022-12-11T15:07:31;21.17;;;9.32;;
48853;SDS011;34673;52.808;17.856;2022-12-11T15:09:59;23.55;;;11.52;;
48853;SDS011;34673;52.808;17.856;2022-12-11T15:12:26;22.35;;;10.57;;
48853;SDS011;34673;52.808;17.856;2022-12-11T15:14:54;21.17;;;10.00;;
48853;SDS011;34673;52.808;17.856;2022-12-11T15:17:28;19.25;;;9.25;;
48853;SDS011;34673;52.808;17.856;2022-12-11T15:20:06;22.38;;;9.30;;
48853;SDS011;34673;52.808;17.856;2022-12-11T15:22:40;18.90;;;9.10;;
48853;SDS011;34673;52.808;17.856;2022-12-11T15:25:16;19.65;;;9.90;;
48853;SDS011;34673;52.808;17.856;2022-12-11T15:27:48;18.35;;;8.20;;
48853;SDS011;34673;52.808;17.856;2022-12-11T15:32:47;19.75;;;8.55;;
48853;SDS011;34673;52.808;17.856;2022-12-11T15:35:21;19.65;;;9.07;;
48853;SDS011;34673;52.808;17.856;2022-12-11T15:37:54;19.35;;;8.77;;
48853;SDS011;34673;52.808;17.856;2022-12-11T15:40:22;18.85;;;8.07;;
48853;SDS011;34673;52.808;17.856;2022-12-11T15:42:50;18.95;;;8.30;;
48853;SDS011;34673;52.808;17.856;2022-12-11T15:45:18;18.63;;;8.70;;
48853;SDS011;34673;52.808;17.856;2022-12-11T15:47:48;17.23;;;8.23;;
48853;SDS011;34673;52.808;17.856;2022-12-11T15:52:47;16.55;;;8.02;;
48853;SDS011;34673;52.808;17.856;2022-12-11T15:55:16;15.35;;;7.88;;
48853;SDS011;34673;52.808;17.856;2022-12-11T15:57:44;15.57;;;8.07;;
48853;SDS011;34673;52.808;17.856;2022-12-11T16:00:15;17.50;;;8.32;;
48853;SDS011;34673;52.808;17.856;2022-12-11T16:02:44;16.40;;;8.45;;
48853;SDS011;34673;52.808;17.856;2022-12-11T16:05:12;17.60;;;8.50;;
48853;SDS011;34673;52.808;17.856;2022-12-11T16:07:40;17.95;;;8.50;;
48853;SDS011;34673;52.808;17.856;2022-12-11T16:10:11;19.23;;;8.55;;
48853;SDS011;34673;52.808;17.856;2022-12-11T16:12:41;18.35;;;8.77;;
48853;SDS011;34673;52.808;17.856;2022-12-11T16:15:09;19.33;;;8.63;;
48853;SDS011;34673;52.808;17.856;2022-12-11T16:17:42;17.30;;;7.85;;